Time;durP1;ratioP1;P1;durP2;ratioP2;P2;SDS_P1;SDS_P2;PMS_P1;PMS_P2;Temp;Humidity;BMP_temperature;BMP_pressure;BME280_temperature;BME280_humidity;BME280_pressure;Samples;Min_cycle;Max_cycle;Signal;HPM_P1;HPM_P2
2022/10/12 00:00:39;;;;;;;;;;;;;;;-142.75;100.00;78466.38;5052787;28;19913;-69
2022/10/12 00:03:05;;;;;;;;;;;;;;;-142.75;100.00;78460.47;5052630;28;19917;-68
2022/10/12 00:05:30;;;;;;;;;;;;;;;-142.75;100.00;78446.69;5052440;28;19918;-68
2022/10/12 00:07:56;;;;;;;;;;;;;;;-142.75;100.00;78432.91;5052118;28;19919;-68
2022/10/12 00:10:21;;;;;;;;;;;;;;;-142.75;100.00;78425.03;5052510;28;19921;-68
2022/10/12 00:12:46;;;;;;;;;;;;;;;-142.75;100.00;78419.13;5067831;28;19996;-70
2022/10/12 00:15:11;;;;;;;;;;;;;;;-142.75;100.00;78411.25;5052290;28;19912;-69
2022/10/12 00:17:36;;;;;;;;;;;;;;;-142.75;100.00;78407.31;5051617;28;19916;-69
2022/10/12 00:20:02;;;;;;;;;;;;;;;-142.75;100.00;78415.19;5051737;28;19913;-68
2022/10/12 00:22:28;;;;;;;;;;;;;;;-142.75;100.00;78401.38;5052206;28;19920;-69
2022/10/12 00:24:53;;;;;;;;;;;;;;;-142.75;100.00;78411.25;5051135;28;20023;-70
2022/10/12 00:27:18;;;;;;;;;;;;;;;-142.75;100.00;78417.16;5051504;28;19913;-69
2022/10/12 00:29:43;;;;;;;;;;;;;;;-142.75;100.00;78413.22;5051783;28;19958;-70
2022/10/12 00:32:09;;;;;;;;;;;;;;;-142.75;100.00;78409.28;5033881;28;20394;-69
2022/10/12 00:34:34;;;;;;;;;;;;;;;-142.75;100.00;78411.25;5033705;28;19916;-69
2022/10/12 00:37:01;;;;;;;;;;;;;;;-142.75;100.00;78423.06;5051444;28;20428;-66
2022/10/12 00:39:27;;;;;;;;;;;;;;;-142.75;100.00;78444.72;5051679;28;19970;-69
2022/10/12 00:41:53;;;;;;;;;;;;;;;-142.75;100.00;78450.63;5051725;28;19913;-69
2022/10/12 00:44:35;;;;;;;;;;;;;;;-142.75;100.00;78460.47;5034082;28;20400;-69
2022/10/12 00:47:09;;;;;;;;;;;;;;;-142.75;100.00;78474.25;5048977;28;19979;-69
2022/10/12 00:49:35;;;;;;;;;;;;;;;-142.75;100.00;78478.19;5033544;28;20454;-69
2022/10/12 00:52:03;;;;;;;;;;;;;;;-142.75;100.00;78484.09;5051632;28;19999;-67
2022/10/12 00:54:31;;;;;;;;;;;;;;;-142.75;100.00;78491.97;5051476;28;19912;-68
2022/10/12 00:56:59;;;;;;;;;;;;;;;-142.75;100.00;78488.03;5051151;28;19916;-69
2022/10/12 00:59:30;;;;;;;;;;;;;;;-142.75;100.00;78511.69;5051640;28;19913;-69
2022/10/12 01:01:55;;;;;;;;;;;;;;;-142.75;100.00;78499.88;5051334;28;19913;-69
2022/10/12 01:04:21;;;;;;;;;;;;;;;-142.75;100.00;78488.03;5051380;28;20019;-69
2022/10/12 01:06:46;;;;;;;;;;;;;;;-142.75;100.00;78488.03;5051029;28;19968;-68
2022/10/12 01:09:12;;;;;;;;;;;;;;;-142.75;100.00;78482.13;5066984;28;19916;-69
2022/10/12 01:11:37;;;;;;;;;;;;;;;-142.75;100.00;78480.16;5033438;28;20367;-69
2022/10/12 01:14:02;;;;;;;;;;;;;;;-142.75;100.00;78480.16;5051595;28;19916;-68
2022/10/12 01:16:37;;;;;;;;;;;;;;;-142.75;100.00;78484.09;5051578;28;19971;-68
2022/10/12 01:19:22;;;;;;;;;;;;;;;-142.75;100.00;78476.22;5033860;28;19955;-69
2022/10/12 01:21:53;;;;;;;;;;;;;;;-142.75;100.00;78472.28;5051783;28;19952;-68
2022/10/12 01:24:37;;;;;;;;;;;;;;;-142.75;100.00;78464.41;5033937;28;20000;-68
2022/10/12 01:27:12;;;;;;;;;;;;;;;-142.75;100.00;78476.22;5051314;28;19916;-68
2022/10/12 01:29:56;;;;;;;;;;;;;;;-142.75;100.00;78472.28;5033877;28;19913;-69
2022/10/12 01:32:26;;;;;;;;;;;;;;;-142.75;100.00;78464.41;5070489;28;20370;-69
2022/10/12 01:34:57;;;;;;;;;;;;;;;-142.75;100.00;78468.34;5037484;28;19959;-68
2022/10/12 01:37:29;;;;;;;;;;;;;;;-142.75;100.00;78462.44;5054913;28;19924;-69
2022/10/12 01:39:55;;;;;;;;;;;;;;;-142.75;100.00;78464.41;5055341;28;19927;-70
2022/10/12 01:42:31;;;;;;;;;;;;;;;-142.75;100.00;78478.19;5055226;28;19917;-69
2022/10/12 01:45:01;;;;;;;;;;;;;;;-142.75;100.00;78480.16;5055161;28;19955;-68
2022/10/12 01:47:26;;;;;;;;;;;;;;;-142.75;100.00;78476.22;5036974;28;20386;-69
2022/10/12 01:49:51;;;;;;;;;;;;;;;-142.75;100.00;78468.34;5054999;28;19920;-69
2022/10/12 01:52:30;;;;;;;;;;;;;;;-142.75;100.00;78472.28;5055042;28;19913;-69
2022/10/12 01:54:59;;;;;;;;;;;;;;;-142.75;100.00;78472.28;5036969;28;19913;-69
2022/10/12 01:57:43;;;;;;;;;;;;;;;-142.75;100.00;78466.38;5036686;28;19917;-68
2022/10/12 02:00:10;;;;;;;;;;;;;;;-142.75;100.00;78468.34;5055536;28;19913;-69
2022/10/12 02:02:51;;;;;;;;;;;;;;;-142.75;100.00;78464.41;5054674;28;19913;-69
2022/10/12 02:05:19;;;;;;;;;;;;;;;-142.75;100.00;78491.97;5054564;28;19917;-70
2022/10/12 02:07:56;;;;;;;;;;;;;;;-142.75;100.00;78488.03;5054333;28;19955;-70
2022/10/12 02:10:26;;;;;;;;;;;;;;;-142.75;100.00;78490.00;5055036;28;20294;-69
2022/10/12 02:12:51;;;;;;;;;;;;;;;-142.75;100.00;78474.25;5036798;28;19960;-69
2022/10/12 02:15:17;;;;;;;;;;;;;;;-142.75;100.00;78464.41;5054544;28;19963;-70
2022/10/12 02:17:44;;;;;;;;;;;;;;;-142.75;100.00;78472.28;5036305;28;19978;-68
2022/10/12 02:20:11;;;;;;;;;;;;;;;-142.75;100.00;78488.03;5055884;28;20406;-69
2022/10/12 02:22:39;;;;;;;;;;;;;;;-142.75;100.00;78480.16;5054542;28;20290;-69
2022/10/12 02:25:06;;;;;;;;;;;;;;;-142.75;100.00;78474.25;5054532;28;19912;-69
2022/10/12 02:27:33;;;;;;;;;;;;;;;-142.75;100.00;78468.34;5054062;28;20521;-68
2022/10/12 02:29:58;;;;;;;;;;;;;;;-142.75;100.00;78476.22;5054345;28;19912;-68
2022/10/12 02:32:47;;;;;;;;;;;;;;;-142.75;100.00;78484.09;5054302;28;19919;-69
2022/10/12 02:35:12;;;;;;;;;;;;;;;-142.75;100.00;78505.78;5054194;28;19912;-68
2022/10/12 02:37:48;;;;;;;;;;;;;;;-142.75;100.00;78503.81;5035962;28;19916;-68
2022/10/12 02:40:28;;;;;;;;;;;;;;;-142.75;100.00;78507.75;5054152;28;19920;-69
2022/10/12 02:42:56;;;;;;;;;;;;;;;-142.75;100.00;78521.53;5053580;28;19913;-69
2022/10/12 02:45:23;;;;;;;;;;;;;;;-142.75;100.00;78533.34;5053938;28;19913;-68
2022/10/12 02:47:50;;;;;;;;;;;;;;;-142.75;100.00;78537.28;5053809;28;19919;-68
2022/10/12 02:50:17;;;;;;;;;;;;;;;-142.75;100.00;78545.16;5053907;28;19916;-68
2022/10/12 02:52:42;;;;;;;;;;;;;;;-142.75;100.00;78555.00;5054410;28;19923;-69
2022/10/12 02:55:08;;;;;;;;;;;;;;;-142.75;100.00;78582.59;5069687;28;19912;-68
2022/10/12 02:57:33;;;;;;;;;;;;;;;-142.75;100.00;78582.59;5035834;28;20375;-67
2022/10/12 02:59:58;;;;;;;;;;;;;;;-142.75;100.00;78568.78;5053774;28;19913;-68
2022/10/12 03:02:23;;;;;;;;;;;;;;;-142.75;100.00;78558.94;5035840;28;19913;-68
2022/10/12 03:04:48;;;;;;;;;;;;;;;-142.75;100.00;78539.25;5053432;28;19923;-68
2022/10/12 03:07:14;;;;;;;;;;;;;;;-142.75;100.00;78515.63;5053340;28;19928;-68
2022/10/12 03:09:39;;;;;;;;;;;;;;;-142.75;100.00;78521.53;5053618;28;19905;-68
2022/10/12 03:12:04;;;;;;;;;;;;;;;-142.75;100.00;78515.63;5053560;28;19916;-69
2022/10/12 03:14:31;;;;;;;;;;;;;;;-142.75;100.00;78499.88;5053481;28;19913;-68
2022/10/12 03:16:57;;;;;;;;;;;;;;;-142.75;100.00;78501.84;5053023;28;19916;-66
2022/10/12 03:19:22;;;;;;;;;;;;;;;-142.75;100.00;78493.97;5053355;28;20008;-68
2022/10/12 03:21:47;;;;;;;;;;;;;;;-142.75;100.00;78493.97;5053218;28;19952;-68
2022/10/12 03:24:12;;;;;;;;;;;;;;;-142.75;100.00;78503.81;5053303;28;19912;-68
2022/10/12 03:26:37;;;;;;;;;;;;;;;-142.75;100.00;78507.75;5068240;28;19913;-68
2022/10/12 03:29:03;;;;;;;;;;;;;;;-142.75;100.00;78511.69;5053221;28;19913;-68
2022/10/12 03:31:28;;;;;;;;;;;;;;;-142.75;100.00;78511.69;5035228;28;19935;-70
2022/10/12 03:33:53;;;;;;;;;;;;;;;-142.75;100.00;78523.50;5053156;28;20414;-69
2022/10/12 03:36:18;;;;;;;;;;;;;;;-142.75;100.00;78519.56;5053169;28;20276;-70
2022/10/12 03:38:43;;;;;;;;;;;;;;;-142.75;100.00;78511.69;5052829;28;19917;-69
2022/10/12 03:41:08;;;;;;;;;;;;;;;-142.75;100.00;78515.63;5052927;28;20007;-69
2022/10/12 03:43:34;;;;;;;;;;;;;;;-142.75;100.00;78511.69;5035032;28;19981;-68
2022/10/12 03:45:59;;;;;;;;;;;;;;;-142.75;100.00;78519.56;5052762;28;20282;-69
2022/10/12 03:48:24;;;;;;;;;;;;;;;-142.75;100.00;78521.53;5052539;28;19917;-69
2022/10/12 03:50:50;;;;;;;;;;;;;;;-142.75;100.00;78523.50;5052748;28;19913;-69
2022/10/12 03:53:16;;;;;;;;;;;;;;;-142.75;100.00;78515.63;5052760;28;19941;-70
2022/10/12 03:55:41;;;;;;;;;;;;;;;-142.75;100.00;78511.69;5034003;28;19988;-69
2022/10/12 03:58:06;;;;;;;;;;;;;;;-142.75;100.00;78513.66;5034377;28;19920;-68
2022/10/12 04:00:31;;;;;;;;;;;;;;;-142.75;100.00;78513.66;5052470;28;19966;-69
2022/10/12 04:02:57;;;;;;;;;;;;;;;-142.75;100.00;78515.63;5046875;28;19917;-68
2022/10/12 04:05:22;;;;;;;;;;;;;;;-142.75;100.00;78519.56;5051486;28;19966;-69
2022/10/12 04:07:47;;;;;;;;;;;;;;;-142.75;100.00;78511.69;5048158;23;19925;-67
2022/10/12 04:10:13;;;;;;;;;;;;;;;-142.75;100.00;78515.63;5010361;28;19961;-67
2022/10/12 04:12:38;;;;;;;;;;;;;;;-142.75;100.00;78509.72;5012175;28;20319;-67
2022/10/12 04:15:03;;;;;;;;;;;;;;;-142.75;100.00;78509.72;5012682;28;19913;-66
2022/10/12 04:17:28;;;;;;;;;;;;;;;-142.75;100.00;78505.78;5015786;28;19917;-67
2022/10/12 04:19:54;;;;;;;;;;;;;;;-142.75;100.00;78515.63;5031001;28;19957;-67
2022/10/12 04:22:19;;;;;;;;;;;;;;;-142.75;100.00;78513.66;5032364;28;20337;-67
2022/10/12 04:24:44;;;;;;;;;;;;;;;-142.75;100.00;78499.88;5032342;28;19913;-67
2022/10/12 04:27:10;;;;;;;;;;;;;;;-142.75;100.00;78497.91;5032028;28;19913;-67
2022/10/12 04:29:36;;;;;;;;;;;;;;;-142.75;100.00;78493.97;5032291;28;19936;-67
2022/10/12 04:32:01;;;;;;;;;;;;;;;-142.75;100.00;78495.94;5032282;28;19935;-67
2022/10/12 04:34:26;;;;;;;;;;;;;;;-142.75;100.00;78493.97;5032177;28;20379;-66
2022/10/12 04:36:51;;;;;;;;;;;;;;;-142.75;100.00;78490.00;5031828;28;19917;-67
2022/10/12 04:39:16;;;;;;;;;;;;;;;-142.75;100.00;78482.13;5032144;28;19913;-67
2022/10/12 04:41:42;;;;;;;;;;;;;;;-142.75;100.00;78478.19;5032194;28;20447;-67
2022/10/12 04:44:07;;;;;;;;;;;;;;;-142.75;100.00;78482.13;5030802;28;19913;-67
2022/10/12 04:46:32;;;;;;;;;;;;;;;-142.75;100.00;78519.56;5032011;28;20349;-67
2022/10/12 04:48:57;;;;;;;;;;;;;;;-142.75;100.00;78490.00;5030312;28;19923;-66
2022/10/12 04:51:23;;;;;;;;;;;;;;;-142.75;100.00;78486.06;5032069;28;19917;-67
2022/10/12 04:53:48;;;;;;;;;;;;;;;-142.75;100.00;78486.06;5032055;28;20374;-66
2022/10/12 04:56:13;;;;;;;;;;;;;;;-142.75;100.00;78488.03;5031992;28;20396;-67
2022/10/12 04:58:38;;;;;;;;;;;;;;;-142.75;100.00;78511.69;5031554;28;19917;-67
2022/10/12 05:01:04;;;;;;;;;;;;;;;-142.75;100.00;78503.81;5031997;28;19920;-67
2022/10/12 05:03:29;;;;;;;;;;;;;;;-142.75;100.00;78488.03;5031875;28;19956;-67
2022/10/12 05:05:54;;;;;;;;;;;;;;;-142.75;100.00;78495.94;5033278;28;19913;-66
2022/10/12 05:08:19;;;;;;;;;;;;;;;-142.75;100.00;78478.19;5034187;28;19917;-67
2022/10/12 05:10:45;;;;;;;;;;;;;;;-142.75;100.00;78476.22;5034563;28;19920;-67
2022/10/12 05:13:11;;;;;;;;;;;;;;;-142.75;100.00;78476.22;5035774;28;19921;-67
2022/10/12 05:15:36;;;;;;;;;;;;;;;-142.75;100.00;78480.16;5035802;28;19913;-67
2022/10/12 05:18:01;;;;;;;;;;;;;;;-142.75;100.00;78474.25;5034097;28;19924;-67
2022/10/12 05:20:26;;;;;;;;;;;;;;;-142.75;100.00;78476.22;5034449;28;19921;-67
2022/10/12 05:22:52;;;;;;;;;;;;;;;-142.75;100.00;78458.50;5035648;28;19913;-67
2022/10/12 05:25:18;;;;;;;;;;;;;;;-142.75;100.00;78484.09;5035597;28;19963;-67
2022/10/12 05:27:43;;;;;;;;;;;;;;;-142.75;100.00;78480.16;5035248;28;19955;-67
2022/10/12 05:30:09;;;;;;;;;;;;;;;-142.75;100.00;78490.00;5034239;28;19960;-67
2022/10/12 05:32:34;;;;;;;;;;;;;;;-142.75;100.00;78491.97;5035469;28;19913;-67
2022/10/12 05:34:59;;;;;;;;;;;;;;;-142.75;100.00;78482.13;5035357;28;19966;-67
2022/10/12 05:37:25;;;;;;;;;;;;;;;-142.75;100.00;78482.13;5034907;28;19978;-67
2022/10/12 05:39:50;;;;;;;;;;;;;;;-142.75;100.00;78476.22;5035323;28;19913;-67
2022/10/12 05:42:16;;;;;;;;;;;;;;;-142.75;100.00;78484.09;5035209;28;20379;-67
2022/10/12 05:44:41;;;;;;;;;;;;;;;-142.75;100.00;78484.09;5035043;28;20007;-67
2022/10/12 05:47:06;;;;;;;;;;;;;;;-142.75;100.00;78495.94;5033498;28;20471;-67
2022/10/12 05:49:31;;;;;;;;;;;;;;;-142.75;100.00;78491.97;5035065;28;19920;-67
2022/10/12 05:51:56;;;;;;;;;;;;;;;-142.75;100.00;78482.13;5033897;28;19943;-66
2022/10/12 05:54:22;;;;;;;;;;;;;;;-142.75;100.00;78480.16;5033783;28;20392;-67
2022/10/12 05:56:47;;;;;;;;;;;;;;;-142.75;100.00;78476.22;5034581;28;19964;-67
2022/10/12 05:59:12;;;;;;;;;;;;;;;-142.75;100.00;78484.09;5033502;28;19913;-67
2022/10/12 06:01:38;;;;;;;;;;;;;;;-142.75;100.00;78478.19;5034955;28;20064;-67
2022/10/12 06:04:03;;;;;;;;;;;;;;;-142.75;100.00;78493.97;5034710;28;20003;-66
2022/10/12 06:06:28;;;;;;;;;;;;;;;-142.75;100.00;78503.81;5034737;28;20367;-67
2022/10/12 06:08:53;;;;;;;;;;;;;;;-142.75;100.00;78523.50;5048969;28;19923;-66
2022/10/12 06:11:19;;;;;;;;;;;;;;;-142.75;100.00;78517.59;5054626;28;19913;-66
2022/10/12 06:13:44;;;;;;;;;;;;;;;-142.75;100.00;78515.63;5054661;28;19912;-66
2022/10/12 06:16:09;;;;;;;;;;;;;;;-142.75;100.00;78517.59;5054587;28;19919;-67
2022/10/12 06:18:35;;;;;;;;;;;;;;;-142.75;100.00;78527.44;5051815;28;20425;-67
2022/10/12 06:21:00;;;;;;;;;;;;;;;-142.75;100.00;78523.50;5054501;28;19913;-67
2022/10/12 06:23:25;;;;;;;;;;;;;;;-142.75;100.00;78507.75;5053203;28;19917;-66
2022/10/12 06:25:51;;;;;;;;;;;;;;;-142.75;100.00;78501.84;5054380;28;19916;-66
2022/10/12 06:28:18;;;;;;;;;;;;;;;-142.75;100.00;78497.91;5052679;28;19920;-67
2022/10/12 06:30:43;;;;;;;;;;;;;;;-142.75;100.00;78486.06;5053796;28;20309;-67
2022/10/12 06:33:08;;;;;;;;;;;;;;;-142.75;100.00;78480.16;5054238;28;19988;-67
2022/10/12 06:35:34;;;;;;;;;;;;;;;-142.75;100.00;78470.31;5053873;28;19923;-66
2022/10/12 06:37:59;;;;;;;;;;;;;;;-142.75;100.00;78470.31;5053689;28;19917;-67
2022/10/12 06:40:24;;;;;;;;;;;;;;;-142.75;100.00;78470.31;5054103;28;19913;-67
2022/10/12 06:42:50;;;;;;;;;;;;;;;-142.75;100.00;78464.41;5036237;28;19912;-67
2022/10/12 06:45:15;;;;;;;;;;;;;;;-142.75;100.00;78464.41;5054117;28;20107;-67
2022/10/12 06:47:40;;;;;;;;;;;;;;;-142.75;100.00;78460.47;5053585;28;19991;-67
2022/10/12 06:50:06;;;;;;;;;;;;;;;-142.75;100.00;78472.28;5053920;28;20338;-67
2022/10/12 06:52:32;;;;;;;;;;;;;;;-142.75;100.00;78468.34;5047969;28;19917;-67
2022/10/12 06:54:57;;;;;;;;;;;;;;;-142.75;100.00;78476.22;5030339;28;19999;-67
2022/10/12 06:57:22;;;;;;;;;;;;;;;-142.75;100.00;78472.28;5050294;28;19920;-67
2022/10/12 06:59:47;;;;;;;;;;;;;;;-142.75;100.00;78454.56;5032904;28;19956;-67
2022/10/12 07:02:12;;;;;;;;;;;;;;;-142.75;100.00;78450.63;5053185;28;20007;-67
2022/10/12 07:04:38;;;;;;;;;;;;;;;-142.75;100.00;78432.91;5049718;28;19917;-67
2022/10/12 07:07:03;;;;;;;;;;;;;;;-142.75;100.00;78427.00;5051798;28;19913;-68
2022/10/12 07:09:28;;;;;;;;;;;;;;;-142.75;100.00;78397.44;5048524;28;20564;-67
2022/10/12 07:11:53;;;;;;;;;;;;;;;-142.75;100.00;78397.44;5050986;28;19920;-66
2022/10/12 07:14:18;;;;;;;;;;;;;;;-142.75;100.00;78405.34;5047492;28;19913;-67
2022/10/12 07:16:44;;;;;;;;;;;;;;;-142.75;100.00;78389.56;5049700;28;20409;-66
2022/10/12 07:19:09;;;;;;;;;;;;;;;-142.75;100.00;78397.44;5052232;28;20012;-67
2022/10/12 07:21:34;;;;;;;;;;;;;;;-142.75;100.00;78379.72;5049126;28;20004;-67
2022/10/12 07:23:59;;;;;;;;;;;;;;;-142.75;100.00;78383.66;5051425;28;19913;-67
2022/10/12 07:26:24;;;;;;;;;;;;;;;-142.75;100.00;78377.75;5047110;28;20035;-67
2022/10/12 07:28:50;;;;;;;;;;;;;;;-142.75;100.00;78354.13;5050990;28;19923;-67
2022/10/12 07:31:15;;;;;;;;;;;;;;;-142.75;100.00;78350.19;5052379;28;19920;-67
2022/10/12 07:33:40;;;;;;;;;;;;;;;-142.75;100.00;78328.53;5049222;28;19920;-66
2022/10/12 07:36:06;;;;;;;;;;;;;;;-142.75;100.00;78318.69;5051544;28;20344;-67
2022/10/12 07:38:31;;;;;;;;;;;;;;;-142.75;100.00;78316.72;5044030;28;19986;-67
2022/10/12 07:41:00;;;;;;;;;;;;;;;-142.75;100.00;78299.00;5050663;28;19920;-67
2022/10/12 07:43:26;;;;;;;;;;;;;;;-142.75;100.00;78255.66;5032200;28;19983;-66
2022/10/12 07:45:52;;;;;;;;;;;;;;;-142.75;100.00;78192.66;5049775;28;19913;-66
2022/10/12 07:48:18;;;;;;;;;;;;;;;-142.75;100.00;78133.56;5051588;28;19912;-66
2022/10/12 07:50:43;;;;;;;;;;;;;;;-142.75;100.00;78054.81;5048770;28;19999;-66
2022/10/12 07:53:08;;;;;;;;;;;;;;;-142.75;100.00;77991.78;5042326;28;20004;-65
2022/10/12 07:55:34;;;;;;;;;;;;;;;-142.75;100.00;77970.13;5031397;28;19913;-65
2022/10/12 07:57:59;;;;;;;;;;;;;;;-142.75;100.00;77905.13;5034272;28;20349;-66
2022/10/12 08:00:25;;;;;;;;;;;;;;;-142.75;100.00;77848.03;5037559;28;19917;-66
2022/10/12 08:02:50;;;;;;;;;;;;;;;-142.75;100.00;77840.16;5048412;28;20408;-67
2022/10/12 08:05:16;;;;;;;;;;;;;;;-142.75;100.00;77832.28;5039677;28;19917;-66
2022/10/12 08:07:42;;;;;;;;;;;;;;;-142.75;100.00;77798.81;5044840;28;19924;-66
2022/10/12 08:10:07;;;;;;;;;;;;;;;-142.75;100.00;77771.25;5047898;28;20297;-66
2022/10/12 08:12:32;;;;;;;;;;;;;;;-142.75;100.00;77741.72;5049359;28;19999;-66
2022/10/12 08:14:57;;;;;;;;;;;;;;;-142.75;100.00;77749.59;5047284;28;19935;-66
2022/10/12 08:17:23;;;;;;;;;;;;;;;-142.75;100.00;77696.41;5042605;28;19936;-66
2022/10/12 08:19:48;;;;;;;;;;;;;;;-142.75;100.00;77684.59;5038244;28;20398;-66
2022/10/12 08:22:13;;;;;;;;;;;;;;;-142.75;100.00;77773.22;5048311;28;19912;-66
2022/10/12 08:24:38;;;;;;;;;;;;;;;-142.75;100.00;77700.34;5047542;28;19917;-66
2022/10/12 08:27:04;;;;;;;;;;;;;;;-142.75;100.00;77668.84;5049855;28;19967;-67
2022/10/12 08:29:29;;;;;;;;;;;;;;;-142.75;100.00;77594.03;5048636;28;19959;-66
2022/10/12 08:31:54;;;;;;;;;;;;;;;-142.75;100.00;77576.31;5047283;28;19920;-66
2022/10/12 08:34:19;;;;;;;;;;;;;;;-142.75;100.00;77566.47;5039223;28;19953;-65
2022/10/12 08:36:44;;;;;;;;;;;;;;;-142.75;100.00;77562.53;5035508;28;19913;-66
2022/10/12 08:39:10;;;;;;;;;;;;;;;-142.75;100.00;77566.47;5044203;28;19912;-66
2022/10/12 08:41:50;;;;;;;;;;;;;;;-142.75;100.00;77568.44;5037012;28;20019;-66
2022/10/12 08:44:24;;;;;;;;;;;;;;;-142.75;100.00;77538.91;5045800;28;19917;-66
2022/10/12 08:46:54;;;;;;;;;;;;;;;-142.75;100.00;77511.34;5040982;28;19913;-66
2022/10/12 08:49:21;;;;;;;;;;;;;;;-142.75;100.00;77497.56;5047403;28;19951;-66
2022/10/12 08:51:55;;;;;;;;;;;;;;;-142.75;100.00;77471.97;5042573;28;19913;-66
2022/10/12 08:54:22;;;;;;;;;;;;;;;-142.75;100.00;77456.22;5034850;28;20375;-66
2022/10/12 08:56:47;;;;;;;;;;;;;;;-142.75;100.00;77426.66;5036772;28;20015;-66
2022/10/12 08:59:13;;;;;;;;;;;;;;;-142.75;100.00;77361.69;5048060;28;20003;-66
2022/10/12 09:01:58;;;;;;;;;;;;;;;-142.75;100.00;77353.81;5047636;28;19944;-66
2022/10/12 09:04:38;;;;;;;;;;;;;;;-142.75;100.00;77310.50;5050115;28;20491;-66
2022/10/12 09:07:22;;;;;;;;;;;;;;;-142.75;100.00;77342.00;5046485;28;20310;-66
2022/10/12 09:10:06;;;;;;;;;;;;;;;-142.75;100.00;77296.72;5045593;28;19939;-66
2022/10/12 09:12:50;;;;;;;;;;;;;;;-142.75;100.00;77342.00;5045907;28;19913;-66
2022/10/12 09:15:18;;;;;;;;;;;;;;;-142.75;100.00;77349.88;5047726;28;19912;-66
2022/10/12 09:17:46;;;;;;;;;;;;;;;-142.75;100.00;77298.69;5035265;28;19927;-67
2022/10/12 09:20:31;;;;;;;;;;;;;;;-142.75;100.00;77280.97;5036138;28;19917;-66
2022/10/12 09:23:10;;;;;;;;;;;;;;;-142.75;100.00;77259.31;5040732;28;20298;-66
2022/10/12 09:25:36;;;;;;;;;;;;;;;-142.75;100.00;77316.41;5031550;28;20482;-66
2022/10/12 09:28:10;;;;;;;;;;;;;;;-142.75;100.00;77381.38;5030947;28;20004;-66
2022/10/12 09:30:40;;;;;;;;;;;;;;;-142.75;100.00;77292.78;5035393;28;20272;-66
2022/10/12 09:33:13;;;;;;;;;;;;;;;-142.75;100.00;77280.97;5046768;28;19952;-65
2022/10/12 09:35:39;;;;;;;;;;;;;;;-142.75;100.00;77290.81;5043000;28;19916;-66
2022/10/12 09:38:05;;;;;;;;;;;;;;;-142.75;100.00;77229.78;5049626;28;19917;-67
2022/10/12 09:40:31;;;;;;;;;;;;;;;-142.75;100.00;77223.88;5051484;28;19913;-67
2022/10/12 09:42:58;;;;;;;;;;;;;;;-142.75;100.00;77156.94;5051530;28;20374;-66
2022/10/12 09:45:23;;;;;;;;;;;;;;;-142.75;100.00;77149.06;5033661;28;19912;-66
2022/10/12 09:48:07;;;;;;;;;;;;;;;-142.75;100.00;77113.63;5051143;28;19920;-66
2022/10/12 09:50:41;;;;;;;;;;;;;;;-142.75;100.00;77072.28;5051403;28;19914;-66
2022/10/12 09:53:14;;;;;;;;;;;;;;;-142.75;94.83;77023.06;5052869;28;19916;-66
2022/10/12 09:55:39;;;;;;;;;;;;;;;-142.75;91.79;76987.63;5054998;28;19913;-66
2022/10/12 09:58:05;;;;;;;;;;;;;;;-142.75;91.32;77054.56;5054435;28;20011;-66
2022/10/12 10:00:31;;;;;;;;;;;;;;;-142.75;92.49;77011.25;5054949;28;19913;-66
2022/10/12 10:02:57;;;;;;;;;;;;;;;-142.75;94.68;77038.81;5054944;28;19939;-66
2022/10/12 10:05:30;;;;;;;;;;;;;;;-142.75;90.35;76981.72;5054774;28;20422;-66
2022/10/12 10:08:13;;;;;;;;;;;;;;;-142.75;87.01;77015.19;5076009;22;19954;-69
2022/10/12 10:11:05;;;;;;;;;;;;;;;-142.75;87.60;76938.41;5053588;28;20455;-69
2022/10/12 10:13:32;;;;;;;;;;;;;;;-142.75;92.05;76979.75;5052003;28;20016;-69
2022/10/12 10:16:10;;;;;;;;;;;;;;;-142.75;86.98;76924.63;5054024;28;19925;-68
2022/10/12 10:18:41;;;;;;;;;;;;;;;-142.75;86.25;76895.09;5059569;28;20298;-68
2022/10/12 10:21:08;;;;;;;;;;;;;;;-142.75;87.68;76881.31;5065683;28;19976;-67
2022/10/12 10:23:49;;;;;;;;;;;;;;;-142.75;84.54;76897.06;5062193;28;19918;-68
2022/10/12 10:26:15;;;;;;;;;;;;;;;-142.75;84.11;76901.00;5065014;28;19919;-68
2022/10/12 10:28:42;;;;;;;;;;;;;;;-142.75;89.82;76912.81;5064371;28;19912;-68
2022/10/12 10:31:14;;;;;;;;;;;;;;;-142.75;88.32;76928.56;5073354;28;19924;-68
2022/10/12 10:33:39;;;;;;;;;;;;;;;-142.75;84.50;76983.69;5070795;28;20495;-66
2022/10/12 10:36:11;;;;;;;;;;;;;;;-142.75;86.17;77009.28;5072401;28;19988;-67
2022/10/12 10:38:54;;;;;;;;;;;;;;;-142.75;91.19;77052.59;5086624;28;19934;-69
2022/10/12 10:41:19;;;;;;;;;;;;;;;-142.75;88.67;77038.81;5070501;28;19912;-69
2022/10/12 10:43:45;;;;;;;;;;;;;;;-142.75;85.56;77025.03;5072282;28;19919;-69
2022/10/12 10:46:11;;;;;;;;;;;;;;;-142.75;86.18;77003.38;5073438;28;20297;-67
2022/10/12 10:48:50;;;;;;;;;;;;;;;-142.75;84.02;77007.31;5064575;28;19916;-68
2022/10/12 10:51:15;;;;;;;;;;;;;;;-142.75;88.28;77036.84;5065299;28;20329;-69
2022/10/12 10:53:42;;;;;;;;;;;;;;;-142.75;91.49;77147.09;5063027;28;20037;-68
2022/10/12 10:56:10;;;;;;;;;;;;;;;-142.75;99.67;77135.28;5067605;28;19912;-68
2022/10/12 10:58:35;;;;;;;;;;;;;;;-142.75;98.32;77139.22;5073425;28;19917;-68
2022/10/12 11:01:04;;;;;;;;;;;;;;;-142.75;96.82;77156.94;5073734;28;19912;-68
2022/10/12 11:03:33;;;;;;;;;;;;;;;-142.75;98.62;77135.28;5072849;28;19913;-68
2022/10/12 11:06:24;;;;;;;;;;;;;;;-142.75;97.34;77107.72;5073585;28;19913;-69
2022/10/12 11:08:55;;;;;;;;;;;;;;;-142.75;96.79;77147.09;5049517;28;19942;-69
2022/10/12 11:11:24;;;;;;;;;;;;;;;-142.75;100.00;77164.81;5073651;28;19919;-68
2022/10/12 11:13:54;;;;;;;;;;;;;;;-142.75;100.00;77172.69;5073778;28;20297;-69
2022/10/12 11:16:41;;;;;;;;;;;;;;;-142.75;100.00;77227.81;5072191;28;19999;-68
2022/10/12 11:19:09;;;;;;;;;;;;;;;-142.75;100.00;77243.56;5073251;28;19946;-68
2022/10/12 11:21:37;;;;;;;;;;;;;;;-142.75;100.00;77263.25;5073288;28;19913;-68
2022/10/12 11:24:14;;;;;;;;;;;;;;;-142.75;100.00;77288.84;5073386;28;19944;-68
2022/10/12 11:26:44;;;;;;;;;;;;;;;-142.75;100.00;77308.53;5073081;28;19990;-69
2022/10/12 11:29:12;;;;;;;;;;;;;;;-142.75;100.00;77361.69;5073094;28;19912;-68
2022/10/12 11:31:41;;;;;;;;;;;;;;;-142.75;100.00;77408.94;5072331;28;20524;-68
2022/10/12 11:34:10;;;;;;;;;;;;;;;-142.75;100.00;77424.69;5071739;28;19913;-68
2022/10/12 11:36:38;;;;;;;;;;;;;;;-142.75;100.00;77428.63;5072646;28;19950;-68
2022/10/12 11:39:13;;;;;;;;;;;;;;;-142.75;100.00;77420.75;5072949;28;20301;-68
2022/10/12 11:41:44;;;;;;;;;;;;;;;-142.75;100.00;77416.81;5072952;28;19998;-68
2022/10/12 11:44:12;;;;;;;;;;;;;;;-142.75;100.00;77403.03;5072945;28;19943;-68
2022/10/12 11:46:45;;;;;;;;;;;;;;;-142.75;100.00;77420.75;5072539;28;19913;-69
2022/10/12 11:49:18;;;;;;;;;;;;;;;-142.75;100.00;77410.91;5072734;28;20011;-69
2022/10/12 11:51:47;;;;;;;;;;;;;;;-142.75;100.00;77338.06;5071495;28;20355;-69
2022/10/12 11:54:31;;;;;;;;;;;;;;;-142.75;100.00;77314.44;5071474;28;19912;-69
2022/10/12 11:57:00;;;;;;;;;;;;;;;-142.75;100.00;77381.38;5072439;28;20007;-69
2022/10/12 11:59:43;;;;;;;;;;;;;;;-142.75;100.00;77375.47;5072632;28;20125;-70
2022/10/12 12:02:14;;;;;;;;;;;;;;;-142.75;100.00;77381.38;5072649;28;20019;-69
2022/10/12 12:04:41;;;;;;;;;;;;;;;-142.75;100.00;77385.31;5072515;28;20003;-69
2022/10/12 12:07:22;;;;;;;;;;;;;;;-142.75;100.00;77391.22;5072347;28;20385;-69
2022/10/12 12:09:47;;;;;;;;;;;;;;;-142.75;100.00;77389.25;5071076;28;20007;-68
2022/10/12 12:12:15;;;;;;;;;;;;;;;-142.75;100.00;77416.81;5072411;28;19995;-69
2022/10/12 12:15:00;;;;;;;;;;;;;;;-142.75;100.00;77430.59;5069114;28;19930;-67
2022/10/12 12:17:27;;;;;;;;;;;;;;;-142.75;100.00;77450.28;5065168;28;20470;-69
2022/10/12 12:19:54;;;;;;;;;;;;;;;-142.75;100.00;77456.22;5060864;28;19921;-69
2022/10/12 12:22:31;;;;;;;;;;;;;;;-142.75;100.00;77462.13;5061552;28;19916;-69